»·PEaware :: N347GL L88-KTNP

N347GL :: L88-KTNP

FLIGHT INFORMATION

Flight Status: Arrived
Operator: Privately registered:
United States
More flights under this callsign
Pilot: Greg L. (17564)
Aircraft: ROCKWELL 112 COMMANDER
(AC11)
More flights by this aircraft type
Origin: L88 New Cuyama
United States
Destination: KTNP Twentynine Palms
United States
More flights between these airports :: More routes between these airports
Route: TAFTO SAUGS PLAYY OKACO
File this flight plan on PilotEdge
Remarks:
Altitude:
(Current/Filed)
9,500ft
Speed:
(Current/Filed)
140kts
Departed: 21-Dec-17 04:59 PM
Arrived: 21-Dec-17 06:30 PM
Distance/Time
Traveled:
191nm/1:31
Distance/Time
To Go:
Arrived

Flight Plot

Page will automatically refresh every two minutes.

Flight plan parsing failed; only flown route is shown


Map Options




Map Legend


Flown Route
Filed Route
Departure Airport
Arrival Airport
Navaid (VOR, NDB)
Fix

Horizontal Profiles

Position Reports

Time Latitude Longitude Heading Altitude Ground
Speed
21-Dec-17 16:56 34.939970 -119.693830 22 2206ft 0kts
21-Dec-17 16:57 34.939971 -119.693829 22 2206ft 0kts
21-Dec-17 16:58 34.939971 -119.693829 22 2206ft 0kts
21-Dec-17 16:59 34.939971 -119.693829 22 2206ft 0kts
21-Dec-17 17:00 34.939971 -119.693829 22 2206ft 0kts
21-Dec-17 17:01 34.939972 -119.693829 22 2206ft 0kts
21-Dec-17 17:02 34.939972 -119.693829 22 2206ft 0kts
21-Dec-17 17:03 34.939972 -119.693829 22 2206ft 0kts
21-Dec-17 17:04 34.939798 -119.694263 188 2206ft 5kts
21-Dec-17 17:05 34.935040 -119.676701 69 2594ft 86kts
21-Dec-17 17:06 34.952581 -119.657578 26 3550ft 88kts
21-Dec-17 17:07 34.970420 -119.635574 53 4343ft 102kts
21-Dec-17 17:08 34.987682 -119.606876 53 5174ft 104kts
21-Dec-17 17:09 35.004923 -119.578348 50 6113ft 104kts
21-Dec-17 17:10 35.022123 -119.549921 50 6871ft 103kts
21-Dec-17 17:11 35.039504 -119.521205 50 7385ft 113kts
21-Dec-17 17:12 35.058992 -119.488931 50 8142ft 121kts
21-Dec-17 17:13 35.079083 -119.455626 49 8765ft 122kts
21-Dec-17 17:14 35.099140 -119.422364 49 9150ft 121kts
21-Dec-17 17:15 35.119292 -119.388913 48 9502ft 122kts
21-Dec-17 17:16 35.139592 -119.355210 47 9766ft 127kts
21-Dec-17 17:17 35.151312 -119.315965 126 9743ft 135kts
21-Dec-17 17:18 35.125389 -119.283000 136 9746ft 135kts
21-Dec-17 17:19 35.099603 -119.249210 136 9746ft 136kts
21-Dec-17 17:20 35.073664 -119.215225 136 9747ft 137kts
21-Dec-17 17:21 35.047704 -119.181257 136 9751ft 136kts
21-Dec-17 17:22 35.021682 -119.147228 136 9754ft 137kts
21-Dec-17 17:23 34.995656 -119.113223 136 9757ft 137kts
21-Dec-17 17:24 34.969668 -119.079301 137 9757ft 137kts
21-Dec-17 17:25 34.943540 -119.045223 137 9773ft 138kts
21-Dec-17 17:26 34.916613 -119.010156 136 9768ft 142kts
21-Dec-17 17:27 34.889564 -118.974942 136 9768ft 141kts
21-Dec-17 17:28 34.862793 -118.940140 136 9773ft 139kts
21-Dec-17 17:29 34.836310 -118.905753 136 9775ft 139kts
21-Dec-17 17:30 34.809703 -118.871241 137 9778ft 139kts
21-Dec-17 17:31 34.783198 -118.836891 137 9777ft 139kts
21-Dec-17 17:32 34.756750 -118.802654 137 9776ft 139kts
21-Dec-17 17:33 34.730267 -118.768397 137 9784ft 138kts
21-Dec-17 17:34 34.703795 -118.734199 137 9781ft 138kts
21-Dec-17 17:35 34.677311 -118.700015 137 9784ft 139kts
21-Dec-17 17:36 34.650604 -118.665580 137 9778ft 140kts
21-Dec-17 17:37 34.623809 -118.631065 137 9775ft 141kts
21-Dec-17 17:38 34.596810 -118.596319 137 9774ft 141kts
21-Dec-17 17:39 34.569872 -118.561693 137 9769ft 141kts
21-Dec-17 17:40 34.542886 -118.527034 137 9766ft 140kts
21-Dec-17 17:41 34.516058 -118.492619 137 9765ft 140kts
21-Dec-17 17:42 34.493477 -118.454769 101 9768ft 143kts
21-Dec-17 17:43 34.484437 -118.406471 103 9768ft 149kts
21-Dec-17 17:44 34.474803 -118.357344 103 9764ft 151kts
21-Dec-17 17:45 34.465004 -118.307899 103 9760ft 151kts
21-Dec-17 17:46 34.455160 -118.258344 103 9754ft 150kts
21-Dec-17 17:47 34.445362 -118.209144 103 9756ft 151kts
21-Dec-17 17:48 34.435436 -118.159398 103 9739ft 151kts
21-Dec-17 17:49 34.425586 -118.110156 103 9740ft 150kts
21-Dec-17 17:50 34.415715 -118.060909 103 9737ft 150kts
21-Dec-17 17:51 34.405788 -118.011500 103 9737ft 150kts
21-Dec-17 17:52 34.395888 -117.962334 103 9745ft 150kts
21-Dec-17 17:53 34.385968 -117.913186 104 9748ft 150kts
21-Dec-17 17:54 34.375995 -117.863884 103 9751ft 150kts
21-Dec-17 17:55 34.366112 -117.815118 103 9760ft 149kts
21-Dec-17 17:56 34.356168 -117.766176 104 9734ft 146kts
21-Dec-17 17:57 34.346696 -117.719687 103 9755ft 143kts
21-Dec-17 17:58 34.336901 -117.671664 103 9749ft 149kts
21-Dec-17 17:59 34.326859 -117.622526 104 9611ft 155kts
21-Dec-17 18:00 34.316312 -117.571077 104 9492ft 154kts
21-Dec-17 18:01 34.306073 -117.521225 104 9498ft 151kts
21-Dec-17 18:02 34.295949 -117.472044 104 9504ft 150kts
21-Dec-17 18:03 34.292021 -117.421878 91 9502ft 149kts
21-Dec-17 18:04 34.290608 -117.371576 91 9501ft 150kts
21-Dec-17 18:05 34.289092 -117.321146 91 9507ft 150kts
21-Dec-17 18:06 34.287555 -117.270722 91 9503ft 149kts
21-Dec-17 18:07 34.286006 -117.220554 91 9514ft 149kts
21-Dec-17 18:08 34.284436 -117.170384 91 9518ft 148kts
21-Dec-17 18:09 34.282857 -117.120554 92 9520ft 148kts
21-Dec-17 18:10 34.281259 -117.070772 92 9528ft 148kts
21-Dec-17 18:11 34.279646 -117.021119 92 9536ft 146kts
21-Dec-17 18:12 34.278026 -116.971922 92 9546ft 146kts
21-Dec-17 18:13 34.276376 -116.922414 92 9550ft 147kts
21-Dec-17 18:14 34.274709 -116.873000 92 9553ft 147kts
21-Dec-17 18:15 34.273023 -116.823602 92 9553ft 146kts
21-Dec-17 18:16 34.271319 -116.774216 92 9551ft 146kts
21-Dec-17 18:17 34.269601 -116.725088 92 9547ft 146kts
21-Dec-17 18:18 34.267870 -116.676054 92 9542ft 146kts
21-Dec-17 18:19 34.266117 -116.626939 93 9545ft 146kts
21-Dec-17 18:20 34.263777 -116.579637 104 9532ft 134kts
21-Dec-17 18:21 34.255551 -116.534756 104 9058ft 138kts
21-Dec-17 18:22 34.247206 -116.489193 104 8609ft 138kts
21-Dec-17 18:23 34.238936 -116.443976 104 8182ft 137kts
21-Dec-17 18:24 34.230738 -116.399005 104 7773ft 136kts
21-Dec-17 18:25 34.222621 -116.354333 105 7393ft 136kts
21-Dec-17 18:26 34.214540 -116.309688 105 7023ft 135kts
21-Dec-17 18:27 34.206560 -116.265373 105 6655ft 134kts
21-Dec-17 18:28 34.198648 -116.221198 105 6313ft 133kts
21-Dec-17 18:29 34.190840 -116.177378 105 5983ft 133kts
21-Dec-17 18:30 34.183143 -116.133977 105 5581ft 127kts
21-Dec-17 18:31 34.175627 -116.091504 105 4731ft 133kts
21-Dec-17 18:32 34.167745 -116.047215 104 3952ft 134kts
21-Dec-17 18:33 34.152203 -116.007638 129 3192ft 131kts
21-Dec-17 18:34 34.134614 -115.975406 98 2486ft 85kts
21-Dec-17 18:35 34.134357 -115.950355 92 1846ft 52kts
21-Dec-17 18:36 34.135093 -115.947443 6 1846ft 6kts
21-Dec-17 18:37 34.135609 -115.946257 357 1846ft 0kts

Navigation Log

Ident Type
Flight plan parsing failed, navigation log unavailable